createdAt,value
2023-02-06T00:02:14.879Z,28.97
2023-02-06T00:04:43.082Z,32.73
2023-02-06T00:07:15.015Z,40.50
2023-02-06T00:09:43.170Z,27.23
2023-02-06T00:12:11.375Z,38.93
2023-02-06T00:14:39.365Z,30.60
2023-02-06T00:17:07.300Z,27.43
2023-02-06T00:19:35.238Z,34.43
2023-02-06T00:22:03.212Z,30.23
2023-02-06T00:24:34.011Z,39.13
2023-02-06T00:27:02.219Z,29.27
2023-02-06T00:29:31.565Z,36.43
2023-02-06T00:31:59.635Z,37.57
2023-02-06T00:34:28.309Z,33.30
2023-02-06T00:36:56.520Z,31.83
2023-02-06T00:39:27.586Z,28.30
2023-02-06T00:41:57.028Z,33.23
2023-02-06T00:44:27.530Z,30.67
2023-02-06T00:46:56.229Z,38.57
2023-02-06T00:49:24.454Z,34.57
2023-02-06T00:51:52.623Z,27.67
2023-02-06T00:54:21.490Z,29.30
2023-02-06T00:56:49.993Z,26.40
2023-02-06T00:59:21.080Z,39.83
2023-02-06T01:01:49.342Z,29.50
2023-02-06T01:04:17.662Z,26.90
2023-02-06T01:06:45.689Z,32.30
2023-02-06T01:09:13.728Z,34.13
2023-02-06T01:11:44.058Z,38.50
2023-02-06T01:14:12.248Z,33.23
2023-02-06T01:16:43.874Z,37.83
2023-02-06T01:19:13.169Z,35.13
2023-02-06T01:21:41.194Z,31.80
2023-02-06T01:24:09.522Z,32.57
2023-02-06T01:26:40.597Z,31.67
2023-02-06T01:29:08.568Z,24.10
2023-02-06T01:31:37.365Z,27.53
2023-02-06T01:34:07.544Z,36.63
2023-02-06T01:36:39.452Z,24.37
2023-02-06T01:39:08.404Z,27.53
2023-02-06T01:41:37.397Z,25.10
2023-02-06T01:44:12.525Z,28.33
2023-02-06T01:47:01.744Z,23.57
2023-02-06T01:49:35.076Z,31.73
2023-02-06T01:52:14.397Z,28.13
2023-02-06T01:54:43.257Z,33.77
2023-02-06T01:57:13.763Z,35.60
2023-02-06T02:00:07.165Z,36.60
2023-02-06T02:02:37.053Z,24.93
2023-02-06T02:05:10.939Z,25.97
2023-02-06T02:07:47.442Z,23.83
2023-02-06T02:10:18.405Z,28.53
2023-02-06T02:12:48.253Z,27.53
2023-02-06T02:15:16.669Z,36.30
2023-02-06T02:17:55.987Z,27.83
2023-02-06T02:20:57.482Z,24.93
2023-02-06T02:23:37.428Z,24.70
2023-02-06T02:26:50.635Z,28.83
2023-02-06T02:29:51.616Z,26.40
2023-02-06T02:32:58.055Z,36.17
2023-02-06T02:35:39.243Z,28.40
2023-02-06T02:38:22.049Z,25.33
2023-02-06T02:40:55.950Z,28.13
2023-02-06T02:43:37.264Z,23.53
2023-02-06T02:46:14.441Z,37.97
2023-02-06T02:48:46.831Z,21.30
2023-02-06T02:51:22.145Z,28.60
2023-02-06T02:53:50.453Z,20.03
2023-02-06T02:56:20.418Z,29.93
2023-02-06T02:58:54.376Z,31.13
2023-02-06T03:01:28.361Z,19.87
2023-02-06T03:03:58.606Z,29.97
2023-02-06T03:06:44.316Z,21.63
2023-02-06T03:09:19.635Z,31.00
2023-02-06T03:11:56.568Z,20.87
2023-02-06T03:14:32.440Z,21.93
2023-02-06T03:17:08.644Z,28.37
2023-02-06T03:19:47.087Z,30.07
2023-02-06T03:22:17.904Z,24.50
2023-02-06T03:24:54.986Z,28.33
2023-02-06T03:27:26.503Z,30.47
2023-02-06T03:29:57.480Z,25.20
2023-02-06T03:32:29.718Z,23.93
2023-02-06T03:35:03.754Z,24.37
2023-02-06T03:37:33.928Z,30.90
2023-02-06T03:40:03.372Z,23.63
2023-02-06T03:42:35.224Z,26.27
2023-02-06T03:45:09.270Z,16.33
2023-02-06T03:47:39.870Z,33.10
2023-02-06T03:50:11.719Z,21.87
2023-02-06T03:52:46.022Z,24.90
2023-02-06T03:55:17.200Z,31.17
2023-02-06T03:57:53.949Z,30.10
2023-02-06T04:00:22.825Z,25.10
2023-02-06T04:02:58.367Z,25.47
2023-02-06T04:05:26.660Z,23.13
2023-02-06T04:08:03.703Z,29.00
2023-02-06T04:10:33.708Z,21.70
2023-02-06T04:13:02.133Z,26.47
2023-02-06T04:15:30.368Z,23.67
2023-02-06T04:18:01.526Z,16.90
2023-02-06T04:20:30.495Z,23.77
2023-02-06T04:23:00.521Z,21.93
2023-02-06T04:25:28.864Z,23.73
2023-02-06T04:27:59.478Z,26.13
2023-02-06T04:30:28.751Z,20.70
2023-02-06T04:32:56.737Z,30.20
2023-02-06T04:35:24.793Z,25.93
2023-02-06T04:37:55.437Z,31.00
2023-02-06T04:40:27.011Z,30.30
2023-02-06T04:42:55.051Z,24.60
2023-02-06T04:45:23.125Z,21.47
2023-02-06T04:47:51.292Z,21.33
2023-02-06T04:50:20.191Z,22.57
2023-02-06T04:52:48.752Z,23.20
2023-02-06T04:55:16.742Z,22.73
2023-02-06T04:57:48.963Z,31.33
2023-02-06T05:00:17.890Z,26.40
2023-02-06T05:02:47.855Z,23.23
2023-02-06T05:05:16.056Z,27.87
2023-02-06T05:07:44.397Z,24.27
2023-02-06T05:10:12.550Z,23.50
2023-02-06T05:13:03.307Z,30.27
2023-02-06T05:15:31.729Z,22.80
2023-02-06T05:18:03.027Z,25.33
2023-02-06T05:20:32.060Z,22.30
2023-02-06T05:23:00.259Z,20.53
2023-02-06T05:25:28.288Z,29.63
2023-02-06T05:27:57.386Z,26.03
2023-02-06T05:30:26.789Z,20.00
2023-02-06T05:32:54.715Z,29.70
2023-02-06T05:35:22.654Z,20.27
2023-02-06T05:37:50.645Z,26.03
2023-02-06T05:40:18.918Z,19.43
2023-02-06T05:42:46.867Z,21.90
2023-02-06T05:45:14.903Z,21.60
2023-02-06T05:47:44.171Z,20.27
2023-02-06T05:50:12.109Z,18.73
2023-02-06T05:52:40.054Z,26.97
2023-02-06T05:55:09.262Z,26.67
2023-02-06T05:57:37.253Z,16.43
2023-02-06T06:00:06.888Z,22.00
2023-02-06T06:02:34.832Z,28.53
2023-02-06T06:05:04.514Z,14.57
2023-02-06T06:07:32.524Z,23.63
2023-02-06T06:10:01.277Z,29.70
2023-02-06T06:12:29.486Z,25.57
2023-02-06T06:14:57.416Z,18.63
2023-02-06T06:17:25.342Z,29.23
2023-02-06T06:19:53.559Z,30.50
2023-02-06T06:22:23.051Z,22.97
2023-02-06T06:24:51.137Z,27.63
2023-02-06T06:27:19.108Z,19.90
2023-02-06T06:29:47.075Z,27.17
2023-02-06T06:32:15.129Z,28.37
2023-02-06T06:34:43.117Z,28.20
2023-02-06T06:37:11.042Z,32.93
2023-02-06T06:39:40.475Z,25.77
2023-02-06T06:42:08.637Z,30.70
2023-02-06T06:44:36.718Z,26.13
2023-02-06T06:47:05.039Z,24.83
2023-02-06T06:49:34.232Z,30.17
2023-02-06T06:52:02.343Z,23.43
2023-02-06T06:54:30.372Z,30.30
2023-02-06T06:56:59.857Z,26.97
2023-02-06T06:59:28.199Z,25.27
2023-02-06T07:01:56.133Z,23.37
2023-02-06T07:04:28.442Z,25.67
2023-02-06T07:06:56.450Z,27.97
2023-02-06T07:09:24.814Z,25.33
2023-02-06T07:11:52.766Z,21.53
2023-02-06T07:14:22.149Z,24.30
2023-02-06T07:16:50.176Z,25.13
2023-02-06T07:19:18.261Z,26.23
2023-02-06T07:21:46.182Z,33.40
2023-02-06T07:24:14.278Z,23.43
2023-02-06T07:26:42.536Z,26.60
2023-02-06T07:29:10.781Z,22.83
2023-02-06T07:31:40.226Z,32.77
2023-02-06T07:34:08.261Z,29.87
2023-02-06T07:36:36.329Z,31.80
2023-02-06T07:39:04.686Z,35.70
2023-02-06T07:41:32.761Z,29.83
2023-02-06T07:44:00.816Z,27.93
2023-02-06T07:46:28.890Z,21.10
2023-02-06T07:48:58.802Z,28.07
2023-02-06T07:51:27.557Z,23.23
2023-02-06T07:53:55.804Z,24.23
2023-02-06T07:56:25.206Z,20.90
2023-02-06T07:58:54.733Z,23.90
2023-02-06T08:01:23.833Z,21.20
2023-02-06T08:03:51.980Z,28.33
2023-02-06T08:06:24.362Z,29.00
2023-02-06T08:08:52.834Z,22.40
2023-02-06T08:11:24.003Z,25.27
2023-02-06T08:13:51.977Z,29.70
2023-02-06T08:16:21.213Z,34.37
2023-02-06T08:18:49.393Z,25.77
2023-02-06T08:21:19.926Z,38.20
2023-02-06T08:23:54.845Z,28.30
2023-02-06T08:26:23.476Z,31.23
2023-02-06T08:28:52.361Z,29.43
2023-02-06T08:31:22.531Z,32.17
2023-02-06T08:33:51.046Z,18.33
2023-02-06T08:36:20.900Z,27.07
2023-02-06T08:38:50.787Z,29.80
2023-02-06T08:41:20.499Z,24.47
2023-02-06T08:43:49.785Z,24.77
2023-02-06T08:46:19.223Z,27.03
2023-02-06T08:48:47.659Z,25.90
2023-02-06T08:51:16.312Z,27.00
2023-02-06T08:53:44.527Z,24.70
2023-02-06T08:56:14.188Z,27.90
2023-02-06T08:58:42.771Z,20.67
2023-02-06T09:01:13.777Z,28.57
2023-02-06T09:03:43.023Z,27.53
2023-02-06T09:06:12.419Z,26.67
2023-02-06T09:08:41.675Z,20.53
2023-02-06T09:11:11.287Z,30.80
2023-02-06T09:13:40.734Z,31.43
2023-02-06T09:16:09.315Z,27.00
2023-02-06T09:18:37.890Z,24.97
2023-02-06T09:21:12.476Z,35.87
2023-02-06T09:23:42.606Z,25.03
2023-02-06T09:26:10.805Z,25.77
2023-02-06T09:28:40.281Z,26.87
2023-02-06T09:31:08.837Z,33.40
2023-02-06T09:33:38.902Z,46.10
2023-02-06T09:36:09.651Z,38.37
2023-02-06T09:38:39.725Z,39.83
2023-02-06T09:41:15.753Z,33.37
2023-02-06T09:43:50.855Z,18.33
2023-02-06T09:46:23.328Z,26.80
2023-02-06T09:48:52.172Z,26.73
2023-02-06T09:51:27.969Z,36.30
2023-02-06T09:54:05.837Z,24.80
2023-02-06T09:56:50.146Z,33.20
2023-02-06T09:59:28.117Z,29.13
2023-02-06T10:02:08.344Z,26.13
2023-02-06T10:04:45.248Z,23.00
2023-02-06T10:07:25.309Z,20.50
2023-02-06T10:09:59.542Z,22.43
2023-02-06T10:12:32.365Z,26.70
2023-02-06T10:15:05.769Z,23.17
2023-02-06T10:17:39.057Z,17.50
2023-02-06T10:20:13.033Z,28.77
2023-02-06T10:22:48.755Z,24.70
2023-02-06T10:25:22.859Z,27.67
2023-02-06T10:27:55.664Z,27.97
2023-02-06T10:30:36.953Z,28.03
2023-02-06T10:33:24.822Z,21.80
2023-02-06T10:36:00.786Z,26.67
2023-02-06T10:38:48.716Z,24.97
2023-02-06T10:41:27.675Z,19.43
2023-02-06T10:44:00.716Z,21.13
2023-02-06T10:46:43.880Z,17.47
2023-02-06T10:49:23.004Z,11.33
2023-02-06T10:51:55.272Z,22.73
2023-02-06T10:54:26.612Z,21.80
2023-02-06T10:56:58.078Z,21.57
2023-02-06T10:59:31.039Z,23.40
2023-02-06T11:02:19.109Z,27.00
2023-02-06T11:04:54.962Z,22.60
2023-02-06T11:07:28.238Z,14.77
2023-02-06T11:09:56.417Z,18.73
2023-02-06T11:12:31.271Z,20.53
2023-02-06T11:15:02.753Z,21.27
2023-02-06T11:17:32.655Z,17.47
2023-02-06T11:20:16.144Z,21.13
2023-02-06T11:22:52.592Z,24.50
2023-02-06T11:25:26.713Z,19.23
2023-02-06T11:27:55.539Z,17.80
2023-02-06T11:30:30.662Z,18.03
2023-02-06T11:33:05.171Z,21.73
2023-02-06T11:35:37.814Z,18.90
2023-02-06T11:38:15.995Z,17.20
2023-02-06T11:40:44.638Z,17.77
2023-02-06T11:43:21.281Z,23.60
2023-02-06T11:45:52.575Z,13.70
2023-02-06T11:48:38.432Z,18.87
2023-02-06T11:51:09.029Z,16.73
2023-02-06T11:53:38.029Z,24.53
2023-02-06T11:56:16.685Z,14.90
2023-02-06T11:58:45.841Z,17.60
2023-02-06T12:01:20.942Z,12.17
2023-02-06T12:03:56.781Z,13.67
2023-02-06T12:06:31.472Z,20.93
2023-02-06T12:09:02.101Z,16.03
2023-02-06T12:11:36.243Z,22.93
2023-02-06T12:14:08.155Z,17.27
2023-02-06T12:16:39.622Z,27.83
2023-02-06T12:19:16.683Z,20.50
2023-02-06T12:21:49.683Z,16.70
2023-02-06T12:24:32.268Z,17.23
2023-02-06T12:27:06.661Z,20.00
2023-02-06T12:29:37.808Z,20.97
2023-02-06T12:32:10.850Z,20.87
2023-02-06T12:34:53.817Z,18.90
2023-02-06T12:37:31.824Z,21.03
2023-02-06T12:40:01.072Z,20.67
2023-02-06T12:42:38.046Z,19.87
2023-02-06T12:45:16.418Z,17.40
2023-02-06T12:47:49.547Z,20.80
2023-02-06T12:50:23.720Z,20.73
2023-02-06T12:52:55.942Z,17.63
2023-02-06T12:55:28.197Z,16.83
2023-02-06T12:57:57.737Z,9.20
2023-02-06T13:00:50.339Z,20.23
2023-02-06T13:03:28.712Z,14.00
2023-02-06T13:06:13.383Z,14.83
2023-02-06T13:08:45.522Z,19.50
2023-02-06T13:11:30.143Z,11.67
2023-02-06T13:14:07.040Z,14.53
2023-02-06T13:16:46.893Z,14.50
2023-02-06T13:19:30.941Z,20.23
2023-02-06T13:22:37.809Z,12.73
2023-02-06T13:25:50.921Z,16.47
2023-02-06T13:28:46.541Z,14.93
2023-02-06T13:31:29.720Z,22.17
2023-02-06T13:34:01.237Z,19.77
2023-02-06T13:36:57.577Z,16.47
2023-02-06T13:39:32.006Z,15.57
2023-02-06T13:42:24.171Z,15.10
2023-02-06T13:44:54.629Z,17.80
2023-02-06T13:48:02.393Z,13.63
2023-02-06T13:50:51.265Z,16.17
2023-02-06T13:53:41.035Z,19.40
2023-02-06T13:56:35.372Z,13.30
2023-02-06T13:59:13.626Z,16.87
2023-02-06T14:01:43.388Z,10.30
2023-02-06T14:04:20.621Z,14.97
2023-02-06T14:07:17.644Z,13.70
2023-02-06T14:10:18.107Z,16.33
2023-02-06T14:13:04.030Z,18.57
2023-02-06T14:15:39.437Z,16.03
2023-02-06T14:18:27.003Z,16.70
2023-02-06T14:21:04.943Z,15.87
2023-02-06T14:23:45.631Z,18.60
2023-02-06T14:26:27.830Z,16.80
2023-02-06T14:29:02.910Z,14.27
2023-02-06T14:31:51.408Z,18.90
2023-02-06T14:34:36.108Z,23.00
2023-02-06T14:37:28.714Z,16.30
2023-02-06T14:40:04.458Z,18.37
2023-02-06T14:42:38.365Z,15.07
2023-02-06T14:45:10.348Z,20.13
2023-02-06T14:47:42.643Z,9.57
2023-02-06T14:50:21.112Z,19.03
2023-02-06T14:52:53.800Z,13.10
2023-02-06T14:55:33.978Z,18.13
2023-02-06T14:58:02.596Z,16.27
2023-02-06T15:00:31.357Z,16.87
2023-02-06T15:03:09.172Z,18.17
2023-02-06T15:05:38.853Z,14.70
2023-02-06T15:08:07.904Z,18.43
2023-02-06T15:10:37.933Z,17.97
2023-02-06T15:13:06.270Z,18.93
2023-02-06T15:15:36.078Z,13.57
2023-02-06T15:18:06.775Z,17.83
2023-02-06T15:20:40.401Z,17.63
2023-02-06T15:23:18.124Z,13.67
2023-02-06T15:26:02.791Z,22.27
2023-02-06T15:28:34.804Z,17.50
2023-02-06T15:31:03.791Z,20.90
2023-02-06T15:33:33.665Z,17.30
2023-02-06T15:36:05.180Z,17.87
2023-02-06T15:38:34.953Z,17.83
2023-02-06T15:41:06.905Z,15.83
2023-02-06T15:43:35.932Z,16.80
2023-02-06T15:46:06.982Z,18.23
2023-02-06T15:48:38.130Z,15.20
2023-02-06T15:51:23.728Z,15.73
2023-02-06T15:53:53.124Z,17.83
2023-02-06T15:56:25.532Z,16.73
2023-02-06T15:58:59.271Z,15.93
2023-02-06T16:01:30.406Z,17.43
2023-02-06T16:04:06.337Z,14.47
2023-02-06T16:06:37.455Z,19.67
2023-02-06T16:09:08.372Z,18.67
2023-02-06T16:11:49.409Z,20.13
2023-02-06T16:14:25.236Z,20.13
2023-02-06T16:17:01.651Z,18.37
2023-02-06T16:19:47.906Z,20.30
2023-02-06T16:22:23.376Z,16.30
2023-02-06T16:24:54.007Z,20.63
2023-02-06T16:27:24.172Z,15.33
2023-02-06T16:29:55.109Z,14.37
2023-02-06T16:32:26.158Z,18.70
2023-02-06T16:34:54.343Z,16.63
2023-02-06T16:37:27.075Z,16.20
2023-02-06T16:39:55.918Z,16.17
2023-02-06T16:42:25.769Z,14.63
2023-02-06T16:44:59.348Z,21.77
2023-02-06T16:47:28.081Z,15.63
2023-02-06T16:49:56.284Z,16.13
2023-02-06T16:52:27.300Z,19.00
2023-02-06T16:54:57.777Z,22.93
2023-02-06T16:57:31.132Z,18.13
2023-02-06T16:59:59.817Z,17.93
2023-02-06T17:02:28.898Z,17.20
2023-02-06T17:04:57.038Z,17.70
2023-02-06T17:07:28.956Z,13.90
2023-02-06T17:09:59.457Z,14.20
2023-02-06T17:12:27.519Z,12.13
2023-02-06T17:14:56.411Z,16.03
2023-02-06T17:17:24.519Z,21.23
2023-02-06T17:19:53.756Z,20.73
2023-02-06T17:22:21.821Z,18.90
2023-02-06T17:24:51.527Z,18.70
2023-02-06T17:27:21.995Z,19.73
2023-02-06T17:29:51.120Z,17.73
2023-02-06T17:32:23.625Z,22.90
2023-02-06T17:34:54.085Z,19.37
2023-02-06T17:37:22.417Z,25.57
2023-02-06T17:39:53.172Z,26.30
2023-02-06T17:42:21.980Z,22.63
2023-02-06T17:44:50.471Z,19.00
2023-02-06T17:47:18.760Z,17.67
2023-02-06T17:49:47.802Z,18.00
2023-02-06T17:52:16.030Z,23.53
2023-02-06T17:54:44.544Z,16.07
2023-02-06T17:57:14.373Z,20.13
2023-02-06T17:59:42.394Z,17.53
2023-02-06T18:02:16.590Z,17.03
2023-02-06T18:04:44.650Z,20.27
2023-02-06T18:07:13.009Z,16.17
2023-02-06T18:09:42.224Z,22.93
2023-02-06T18:12:11.042Z,16.03
2023-02-06T18:14:40.896Z,18.33
2023-02-06T18:17:09.909Z,17.13
2023-02-06T18:19:42.014Z,25.33
2023-02-06T18:22:11.486Z,28.07
2023-02-06T18:24:39.533Z,23.60
2023-02-06T18:27:08.666Z,23.10
2023-02-06T18:29:49.412Z,20.20
2023-02-06T18:32:19.202Z,20.27
2023-02-06T18:34:47.878Z,24.50
2023-02-06T18:37:15.945Z,18.90
2023-02-06T18:39:44.179Z,17.93
2023-02-06T18:42:30.352Z,21.13
2023-02-06T18:44:59.878Z,19.73
2023-02-06T18:47:27.886Z,24.43
2023-02-06T18:49:56.074Z,25.87
2023-02-06T18:52:24.276Z,35.63
2023-02-06T18:54:52.276Z,25.00
2023-02-06T18:57:20.650Z,29.83
2023-02-06T18:59:50.248Z,22.37
2023-02-06T19:02:21.459Z,14.67
2023-02-06T19:04:49.924Z,21.43
2023-02-06T19:07:24.740Z,20.23
2023-02-06T19:09:59.892Z,14.80
2023-02-06T19:12:31.946Z,21.37
2023-02-06T19:15:02.827Z,18.53
2023-02-06T19:17:32.616Z,15.60
2023-02-06T19:20:00.949Z,23.60
2023-02-06T19:22:31.910Z,25.73
2023-02-06T19:25:00.054Z,22.47
2023-02-06T19:27:28.373Z,22.83
2023-02-06T19:29:56.652Z,28.57
2023-02-06T19:32:26.615Z,23.10
2023-02-06T19:35:00.443Z,19.13
2023-02-06T19:37:28.805Z,20.33
2023-02-06T19:39:57.282Z,24.60
2023-02-06T19:42:26.837Z,22.40
2023-02-06T19:44:57.463Z,22.00
2023-02-06T19:47:25.680Z,23.50
2023-02-06T19:49:56.022Z,24.17
2023-02-06T19:52:24.274Z,26.23
2023-02-06T19:54:52.469Z,33.43
2023-02-06T19:57:22.889Z,22.80
2023-02-06T19:59:51.132Z,30.43
2023-02-06T20:02:19.140Z,22.13
2023-02-06T20:04:49.243Z,28.70
2023-02-06T20:07:19.173Z,28.57
2023-02-06T20:10:08.322Z,20.63
2023-02-06T20:12:36.632Z,26.97
2023-02-06T20:15:05.249Z,17.60
2023-02-06T20:17:37.063Z,19.10
2023-02-06T20:20:09.891Z,23.47
2023-02-06T20:22:40.810Z,20.17
2023-02-06T20:25:09.427Z,21.93
2023-02-06T20:27:37.740Z,24.23
2023-02-06T20:30:07.077Z,21.73
2023-02-06T20:32:35.493Z,17.87
2023-02-06T20:35:03.621Z,17.23
2023-02-06T20:37:32.322Z,22.53
2023-02-06T20:40:02.279Z,21.23
2023-02-06T20:42:32.021Z,27.70
2023-02-06T20:45:00.172Z,19.27
2023-02-06T20:47:31.031Z,24.90
2023-02-06T20:50:00.478Z,20.57
2023-02-06T20:52:48.712Z,24.83
2023-02-06T20:55:19.271Z,23.70
2023-02-06T20:57:48.186Z,21.47
2023-02-06T21:00:17.982Z,36.70
2023-02-06T21:02:47.627Z,37.80
2023-02-06T21:05:19.301Z,37.47
2023-02-06T21:07:50.579Z,26.37
2023-02-06T21:10:21.864Z,32.97
2023-02-06T21:12:50.333Z,30.37
2023-02-06T21:15:20.742Z,30.53
2023-02-06T21:17:53.826Z,22.17
2023-02-06T21:20:58.521Z,23.83
2023-02-06T21:23:29.283Z,23.97
2023-02-06T21:26:21.016Z,26.80
2023-02-06T21:29:10.719Z,29.57
2023-02-06T21:31:44.285Z,25.90
2023-02-06T21:34:20.626Z,24.83
2023-02-06T21:36:50.183Z,18.87
2023-02-06T21:39:26.137Z,27.27
2023-02-06T21:41:57.292Z,22.80
2023-02-06T21:44:30.136Z,20.20
2023-02-06T21:46:58.541Z,23.53
2023-02-06T21:49:28.399Z,22.57
2023-02-06T21:51:59.516Z,19.33
2023-02-06T21:54:33.462Z,21.77
2023-02-06T21:57:18.116Z,20.60
2023-02-06T21:59:47.994Z,24.87
2023-02-06T22:02:16.454Z,22.50
2023-02-06T22:04:44.888Z,25.20
2023-02-06T22:07:14.241Z,23.33
2023-02-06T22:09:46.025Z,27.20
2023-02-06T22:12:17.921Z,22.20
2023-02-06T22:14:47.315Z,24.13
2023-02-06T22:17:17.141Z,18.60
2023-02-06T22:19:45.658Z,18.83
2023-02-06T22:22:21.705Z,25.00
2023-02-06T22:24:52.455Z,18.40
2023-02-06T22:27:20.863Z,23.57
2023-02-06T22:29:54.813Z,22.93
2023-02-06T22:32:23.163Z,22.43
2023-02-06T22:34:54.203Z,23.73
2023-02-06T22:37:23.442Z,24.33
2023-02-06T22:39:51.788Z,19.33
2023-02-06T22:42:22.824Z,18.37
2023-02-06T22:44:53.365Z,25.70
2023-02-06T22:47:21.383Z,24.73
2023-02-06T22:49:54.050Z,29.57
2023-02-06T22:52:45.877Z,25.70
2023-02-06T22:55:14.414Z,21.77
2023-02-06T22:57:45.158Z,25.70
2023-02-06T23:00:16.982Z,23.93
2023-02-06T23:02:45.056Z,30.83
2023-02-06T23:05:13.322Z,28.13
2023-02-06T23:07:42.052Z,26.07
2023-02-06T23:10:10.762Z,27.00
2023-02-06T23:12:40.665Z,28.87
2023-02-06T23:15:09.778Z,26.57
2023-02-06T23:17:39.701Z,26.20
2023-02-06T23:20:08.594Z,27.17
2023-02-06T23:22:37.215Z,27.07
2023-02-06T23:25:05.810Z,24.77
2023-02-06T23:27:38.835Z,20.03
2023-02-06T23:30:12.126Z,26.77
2023-02-06T23:32:41.840Z,27.57
2023-02-06T23:35:30.327Z,22.77
2023-02-06T23:37:58.356Z,25.57
2023-02-06T23:40:50.045Z,24.60
2023-02-06T23:43:23.318Z,23.17
2023-02-06T23:46:15.300Z,15.93
2023-02-06T23:48:45.060Z,20.30
2023-02-06T23:51:17.898Z,17.43
2023-02-06T23:53:47.301Z,24.33
2023-02-06T23:56:21.397Z,24.97
2023-02-06T23:58:50.722Z,22.87
